sensor_id;sensor_type;location;lat;lon;timestamp;pressure;altitude;pressure_sealevel;temperature;humidity
29417;BME280;28421;51.030;4.006;2023-04-08T03:17:15;102375.69;;;9.43;77.04
29417;BME280;28421;51.030;4.006;2023-04-08T03:20:06;102379.25;;;9.64;76.16
29417;BME280;28421;51.030;4.006;2023-04-08T03:22:32;102371.28;;;9.42;76.70
29417;BME280;28421;51.030;4.006;2023-04-08T03:24:58;102369.09;;;9.68;76.78
29417;BME280;28421;51.030;4.006;2023-04-08T03:27:23;102348.25;;;9.60;76.44
29417;BME280;28421;51.030;4.006;2023-04-08T03:29:49;102364.44;;;9.70;76.53
29417;BME280;28421;51.030;4.006;2023-04-08T03:32:15;102341.66;;;9.64;76.13
29417;BME280;28421;51.030;4.006;2023-04-08T03:34:40;102356.19;;;9.83;75.84
29417;BME280;28421;51.030;4.006;2023-04-08T03:37:06;102356.13;;;9.41;76.61
29417;BME280;28421;51.030;4.006;2023-04-08T03:39:32;102350.03;;;9.50;77.03
29417;BME280;28421;51.030;4.006;2023-04-08T03:41:57;102362.16;;;9.65;76.40
29417;BME280;28421;51.030;4.006;2023-04-08T03:44:25;102391.91;;;9.94;76.32
29417;BME280;28421;51.030;4.006;2023-04-08T03:46:51;102395.59;;;9.93;76.41
29417;BME280;28421;51.030;4.006;2023-04-08T03:49:17;102378.63;;;9.93;76.18
29417;BME280;28421;51.030;4.006;2023-04-08T03:51:42;102348.44;;;9.80;75.92
29417;BME280;28421;51.030;4.006;2023-04-08T03:54:07;102372.28;;;9.94;75.42
29417;BME280;28421;51.030;4.006;2023-04-08T03:56:33;102376.78;;;9.93;75.83
29417;BME280;28421;51.030;4.006;2023-04-08T03:58:58;102378.09;;;9.99;75.47
29417;BME280;28421;51.030;4.006;2023-04-08T04:01:24;102394.63;;;10.15;75.21
29417;BME280;28421;51.030;4.006;2023-04-08T04:03:49;102382.56;;;9.89;74.76
29417;BME280;28421;51.030;4.006;2023-04-08T04:06:15;102389.72;;;10.00;75.28
29417;BME280;28421;51.030;4.006;2023-04-08T04:08:40;102358.88;;;9.83;75.10
29417;BME280;28421;51.030;4.006;2023-04-08T04:11:05;102368.28;;;9.88;75.08
29417;BME280;28421;51.030;4.006;2023-04-08T04:13:31;102395.81;;;10.23;74.85
29417;BME280;28421;51.030;4.006;2023-04-08T04:15:56;102383.13;;;9.71;75.71
29417;BME280;28421;51.030;4.006;2023-04-08T04:18:22;102378.41;;;9.64;75.96
29417;BME280;28421;51.030;4.006;2023-04-08T04:20:47;102384.69;;;9.74;76.47
29417;BME280;28421;51.030;4.006;2023-04-08T04:23:12;102395.59;;;9.93;75.67
29417;BME280;28421;51.030;4.006;2023-04-08T04:25:41;102382.03;;;10.16;74.73
29417;BME280;28421;51.030;4.006;2023-04-08T04:28:07;102389.56;;;10.22;74.62
29417;BME280;28421;51.030;4.006;2023-04-08T04:30:37;102352.09;;;10.00;74.64
29417;BME280;28421;51.030;4.006;2023-04-08T04:33:04;102405.34;;;10.27;74.61
29417;BME280;28421;51.030;4.006;2023-04-08T04:35:30;102398.75;;;10.19;74.45
29417;BME280;28421;51.030;4.006;2023-04-08T04:37:55;102369.66;;;10.04;74.49
29417;BME280;28421;51.030;4.006;2023-04-08T04:40:21;102407.34;;;10.13;74.82
29417;BME280;28421;51.030;4.006;2023-04-08T04:42:46;102363.69;;;9.79;74.99
29417;BME280;28421;51.030;4.006;2023-04-08T04:45:12;102388.38;;;9.94;74.93
29417;BME280;28421;51.030;4.006;2023-04-08T04:47:37;102375.28;;;10.01;74.69
29417;BME280;28421;51.030;4.006;2023-04-08T04:50:03;102371.16;;;9.76;75.29
29417;BME280;28421;51.030;4.006;2023-04-08T04:52:28;102381.97;;;9.85;75.76
29417;BME280;28421;51.030;4.006;2023-04-08T04:54:56;102401.44;;;9.99;75.20
29417;BME280;28421;51.030;4.006;2023-04-08T04:57:22;102363.09;;;9.43;76.44
29417;BME280;28421;51.030;4.006;2023-04-08T04:59:47;102365.63;;;9.56;76.05
29417;BME280;28421;51.030;4.006;2023-04-08T05:02:12;102398.94;;;9.86;75.78
29417;BME280;28421;51.030;4.006;2023-04-08T05:04:38;102420.41;;;9.86;76.08
29417;BME280;28421;51.030;4.006;2023-04-08T05:07:04;102412.59;;;9.83;76.24
29417;BME280;28421;51.030;4.006;2023-04-08T05:09:29;102428.69;;;9.94;75.90
29417;BME280;28421;51.030;4.006;2023-04-08T05:11:55;102424.03;;;9.75;76.73
29417;BME280;28421;51.030;4.006;2023-04-08T05:14:21;102403.16;;;9.67;76.51
29417;BME280;28421;51.030;4.006;2023-04-08T05:16:46;102427.84;;;9.93;76.36
29417;BME280;28421;51.030;4.006;2023-04-08T05:19:12;102419.94;;;9.92;76.13
29417;BME280;28421;51.030;4.006;2023-04-08T05:21:37;102403.72;;;9.82;75.82
29417;BME280;28421;51.030;4.006;2023-04-08T05:24:03;102388.38;;;9.73;75.55
29417;BME280;28421;51.030;4.006;2023-04-08T05:26:28;102391.19;;;9.71;75.76
29417;BME280;28421;51.030;4.006;2023-04-08T05:28:55;102439.41;;;9.73;76.51
29417;BME280;28421;51.030;4.006;2023-04-08T05:31:20;102436.84;;;9.71;76.47
29417;BME280;28421;51.030;4.006;2023-04-08T05:33:46;102428.72;;;9.83;76.16
29417;BME280;28421;51.030;4.006;2023-04-08T05:36:12;102412.97;;;9.89;75.92
29417;BME280;28421;51.030;4.006;2023-04-08T05:38:38;102400.41;;;9.03;78.53
29417;BME280;28421;51.030;4.006;2023-04-08T05:41:04;102446.00;;;9.14;79.52
29417;BME280;28421;51.030;4.006;2023-04-08T05:43:33;102451.00;;;9.19;79.66
29417;BME280;28421;51.030;4.006;2023-04-08T05:45:59;102432.44;;;9.38;78.56
29417;BME280;28421;51.030;4.006;2023-04-08T05:48:25;102459.66;;;9.34;78.49
29417;BME280;28421;51.030;4.006;2023-04-08T05:50:50;102457.19;;;9.42;78.93
29417;BME280;28421;51.030;4.006;2023-04-08T05:53:16;102453.97;;;9.59;78.12
29417;BME280;28421;51.030;4.006;2023-04-08T05:55:41;102431.88;;;9.67;77.38
29417;BME280;28421;51.030;4.006;2023-04-08T05:58:07;102442.03;;;9.41;77.38
29417;BME280;28421;51.030;4.006;2023-04-08T06:00:33;102432.69;;;9.35;78.09
29417;BME280;28421;51.030;4.006;2023-04-08T06:02:58;102452.56;;;9.33;78.27
29417;BME280;28421;51.030;4.006;2023-04-08T06:05:24;102464.59;;;9.61;77.53
29417;BME280;28421;51.030;4.006;2023-04-08T06:07:50;102458.09;;;9.75;77.23
29417;BME280;28421;51.030;4.006;2023-04-08T06:10:16;102462.34;;;9.77;76.65
29417;BME280;28421;51.030;4.006;2023-04-08T06:12:41;102471.94;;;9.91;76.27
29417;BME280;28421;51.030;4.006;2023-04-08T06:15:07;102454.50;;;9.85;76.26
29417;BME280;28421;51.030;4.006;2023-04-08T06:17:37;102466.06;;;9.97;75.93
29417;BME280;28421;51.030;4.006;2023-04-08T06:20:06;102425.34;;;9.81;75.63
29417;BME280;28421;51.030;4.006;2023-04-08T06:22:34;102466.47;;;10.13;75.32
29417;BME280;28421;51.030;4.006;2023-04-08T06:25:01;102450.72;;;9.88;75.67
29417;BME280;28421;51.030;4.006;2023-04-08T06:27:26;102463.16;;;9.89;76.38
29417;BME280;28421;51.030;4.006;2023-04-08T06:29:51;102497.53;;;10.38;75.76
29417;BME280;28421;51.030;4.006;2023-04-08T06:32:17;102497.28;;;10.09;75.73
29417;BME280;28421;51.030;4.006;2023-04-08T06:34:46;102503.72;;;9.86;76.87
29417;BME280;28421;51.030;4.006;2023-04-08T06:37:12;102471.81;;;9.92;76.59
29417;BME280;28421;51.030;4.006;2023-04-08T06:39:38;102493.38;;;10.02;76.63
29417;BME280;28421;51.030;4.006;2023-04-08T06:42:03;102472.63;;;10.04;75.93
29417;BME280;28421;51.030;4.006;2023-04-08T06:44:42;102468.22;;;10.03;76.02
29417;BME280;28421;51.030;4.006;2023-04-08T06:47:07;102507.06;;;9.99;75.94
29417;BME280;28421;51.030;4.006;2023-04-08T06:49:33;102508.19;;;9.96;76.72
29417;BME280;28421;51.030;4.006;2023-04-08T06:51:58;102505.00;;;10.03;77.10
29417;BME280;28421;51.030;4.006;2023-04-08T06:54:24;102486.09;;;9.93;76.85
29417;BME280;28421;51.030;4.006;2023-04-08T06:56:50;102505.78;;;9.82;77.89
29417;BME280;28421;51.030;4.006;2023-04-08T06:59:15;102475.28;;;9.83;77.76
29417;BME280;28421;51.030;4.006;2023-04-08T07:01:41;102441.63;;;8.91;79.68
29417;BME280;28421;51.030;4.006;2023-04-08T07:04:06;102469.53;;;9.00;82.15
29417;BME280;28421;51.030;4.006;2023-04-08T07:06:31;102515.28;;;9.20;83.01
29417;BME280;28421;51.030;4.006;2023-04-08T07:08:57;102510.28;;;9.05;84.33
29417;BME280;28421;51.030;4.006;2023-04-08T07:11:22;102497.22;;;9.23;83.90
29417;BME280;28421;51.030;4.006;2023-04-08T07:13:48;102500.25;;;9.63;83.18
29417;BME280;28421;51.030;4.006;2023-04-08T07:16:13;102498.41;;;9.63;82.28
29417;BME280;28421;51.030;4.006;2023-04-08T07:18:39;102427.69;;;9.31;82.24
29417;BME280;28421;51.030;4.006;2023-04-08T07:21:06;102475.81;;;9.98;80.34
29417;BME280;28421;51.030;4.006;2023-04-08T07:23:32;102456.16;;;9.98;79.32
29417;BME280;28421;51.030;4.006;2023-04-08T07:26:04;102465.94;;;9.66;79.12
29417;BME280;28421;51.030;4.006;2023-04-08T07:28:30;102479.19;;;9.79;77.70
29417;BME280;28421;51.030;4.006;2023-04-08T07:30:56;102514.66;;;10.05;76.89
29417;BME280;28421;51.030;4.006;2023-04-08T07:33:42;102522.38;;;10.31;76.24
29417;BME280;28421;51.030;4.006;2023-04-08T07:36:45;102476.16;;;10.05;75.24
29417;BME280;28421;51.030;4.006;2023-04-08T07:39:59;102473.41;;;10.16;74.97
29417;BME280;28421;51.030;4.006;2023-04-08T07:42:48;102545.75;;;10.72;73.70
29417;BME280;28421;51.030;4.006;2023-04-08T07:45:22;102531.78;;;10.99;72.23
29417;BME280;28421;51.030;4.006;2023-04-08T07:47:48;102531.59;;;11.22;71.53
29417;BME280;28421;51.030;4.006;2023-04-08T07:50:18;102486.78;;;10.90;69.54
29417;BME280;28421;51.030;4.006;2023-04-08T07:52:44;102505.97;;;10.97;68.99
29417;BME280;28421;51.030;4.006;2023-04-08T07:55:10;102490.00;;;11.05;69.31
29417;BME280;28421;51.030;4.006;2023-04-08T07:57:35;102557.25;;;11.26;68.79
29417;BME280;28421;51.030;4.006;2023-04-08T08:00:03;102554.00;;;11.72;69.55
29417;BME280;28421;51.030;4.006;2023-04-08T08:02:38;102560.06;;;11.95;68.00
29417;BME280;28421;51.030;4.006;2023-04-08T08:05:04;102537.34;;;11.98;66.68
29417;BME280;28421;51.030;4.006;2023-04-08T08:07:30;102524.22;;;11.64;66.61
29417;BME280;28421;51.030;4.006;2023-04-08T08:09:56;102501.22;;;11.10;67.48
29417;BME280;28421;51.030;4.006;2023-04-08T08:12:21;102543.81;;;11.66;67.51
29417;BME280;28421;51.030;4.006;2023-04-08T08:14:47;102565.56;;;11.93;66.90
29417;BME280;28421;51.030;4.006;2023-04-08T08:17:12;102515.94;;;11.46;66.91
29417;BME280;28421;51.030;4.006;2023-04-08T08:19:38;102574.84;;;11.30;68.23
29417;BME280;28421;51.030;4.006;2023-04-08T08:22:06;102512.59;;;10.92;68.36
29417;BME280;28421;51.030;4.006;2023-04-08T08:24:31;102570.44;;;11.69;68.10
29417;BME280;28421;51.030;4.006;2023-04-08T08:26:57;102551.38;;;10.90;69.00
29417;BME280;28421;51.030;4.006;2023-04-08T08:29:22;102561.09;;;11.02;69.92
29417;BME280;28421;51.030;4.006;2023-04-08T08:31:48;102562.50;;;11.27;70.42
29417;BME280;28421;51.030;4.006;2023-04-08T08:34:13;102538.00;;;11.30;69.25
29417;BME280;28421;51.030;4.006;2023-04-08T08:36:39;102558.28;;;11.75;68.22
29417;BME280;28421;51.030;4.006;2023-04-08T08:39:05;102554.28;;;11.69;68.23
29417;BME280;28421;51.030;4.006;2023-04-08T08:41:33;102524.78;;;11.58;68.13
29417;BME280;28421;51.030;4.006;2023-04-08T08:44:04;102593.16;;;11.76;69.11
29417;BME280;28421;51.030;4.006;2023-04-08T08:46:30;102580.97;;;11.72;68.78
29417;BME280;28421;51.030;4.006;2023-04-08T08:48:56;102562.34;;;12.19;67.65
29417;BME280;28421;51.030;4.006;2023-04-08T08:51:21;102548.59;;;12.51;66.54
29417;BME280;28421;51.030;4.006;2023-04-08T08:53:48;102576.84;;;11.78;67.38
29417;BME280;28421;51.030;4.006;2023-04-08T08:56:13;102553.19;;;11.81;68.39
29417;BME280;28421;51.030;4.006;2023-04-08T08:58:39;102564.19;;;12.18;67.34
29417;BME280;28421;51.030;4.006;2023-04-08T09:01:33;102594.44;;;12.71;66.66
29417;BME280;28421;51.030;4.006;2023-04-08T09:04:14;102527.13;;;12.11;66.67
29417;BME280;28421;51.030;4.006;2023-04-08T09:06:41;102525.59;;;12.47;65.83
29417;BME280;28421;51.030;4.006;2023-04-08T09:09:07;102557.81;;;12.78;65.45
29417;BME280;28421;51.030;4.006;2023-04-08T09:11:39;102587.22;;;12.32;66.11
29417;BME280;28421;51.030;4.006;2023-04-08T09:14:25;102595.97;;;12.15;66.59
29417;BME280;28421;51.030;4.006;2023-04-08T09:16:50;102582.50;;;12.63;65.96
29417;BME280;28421;51.030;4.006;2023-04-08T09:19:17;102577.81;;;12.56;65.34
29417;BME280;28421;51.030;4.006;2023-04-08T09:21:42;102553.53;;;12.56;65.07
29417;BME280;28421;51.030;4.006;2023-04-08T09:24:09;102531.22;;;12.83;64.18
29417;BME280;28421;51.030;4.006;2023-04-08T09:26:50;102560.06;;;11.95;64.65
29417;BME280;28421;51.030;4.006;2023-04-08T09:29:16;102559.91;;;12.84;64.16
29417;BME280;28421;51.030;4.006;2023-04-08T09:31:41;102558.09;;;13.22;63.44
29417;BME280;28421;51.030;4.006;2023-04-08T09:34:12;102582.38;;;12.46;64.17
29417;BME280;28421;51.030;4.006;2023-04-08T09:36:39;102524.59;;;12.38;63.60
29417;BME280;28421;51.030;4.006;2023-04-08T09:39:05;102528.84;;;12.02;63.30
29417;BME280;28421;51.030;4.006;2023-04-08T09:41:36;102529.09;;;12.77;63.54
29417;BME280;28421;51.030;4.006;2023-04-08T09:44:03;102577.78;;;12.85;63.16
29417;BME280;28421;51.030;4.006;2023-04-08T09:49:54;102593.25;;;13.12;61.05
29417;BME280;28421;51.030;4.006;2023-04-08T09:52:23;102546.13;;;12.77;62.45
29417;BME280;28421;51.030;4.006;2023-04-08T09:55:01;102593.25;;;13.59;61.99
29417;BME280;28421;51.030;4.006;2023-04-08T09:57:49;102569.69;;;12.94;60.50
29417;BME280;28421;51.030;4.006;2023-04-08T10:00:17;102580.94;;;12.80;60.95
29417;BME280;28421;51.030;4.006;2023-04-08T10:05:24;102593.59;;;13.46;62.08
29417;BME280;28421;51.030;4.006;2023-04-08T10:07:50;102551.66;;;13.42;60.25
29417;BME280;28421;51.030;4.006;2023-04-08T10:10:16;102529.69;;;13.17;61.13
29417;BME280;28421;51.030;4.006;2023-04-08T10:12:42;102571.03;;;13.18;61.19
29417;BME280;28421;51.030;4.006;2023-04-08T10:15:28;102534.31;;;12.88;63.03
29417;BME280;28421;51.030;4.006;2023-04-08T10:23:03;102564.22;;;12.57;63.44
29417;BME280;28421;51.030;4.006;2023-04-08T10:25:29;102608.94;;;12.69;63.77
29417;BME280;28421;51.030;4.006;2023-04-08T10:27:55;102574.47;;;13.20;63.24
29417;BME280;28421;51.030;4.006;2023-04-08T10:30:48;102607.59;;;13.12;63.30
29417;BME280;28421;51.030;4.006;2023-04-08T10:33:20;102596.13;;;12.91;64.03
29417;BME280;28421;51.030;4.006;2023-04-08T10:35:48;102568.28;;;12.90;63.40
29417;BME280;28421;51.030;4.006;2023-04-08T10:38:15;102584.22;;;13.40;63.65
29417;BME280;28421;51.030;4.006;2023-04-08T10:40:43;102545.69;;;13.38;62.92
29417;BME280;28421;51.030;4.006;2023-04-08T10:43:09;102526.41;;;12.67;63.01
29417;BME280;28421;51.030;4.006;2023-04-08T10:45:36;102588.50;;;12.38;64.67
29417;BME280;28421;51.030;4.006;2023-04-08T10:50:36;102560.38;;;12.50;65.50
29417;BME280;28421;51.030;4.006;2023-04-08T10:53:02;102591.25;;;13.61;64.58
29417;BME280;28421;51.030;4.006;2023-04-08T10:55:28;102579.34;;;13.54;63.81
29417;BME280;28421;51.030;4.006;2023-04-08T10:57:53;102595.69;;;13.80;62.98
29417;BME280;28421;51.030;4.006;2023-04-08T11:00:32;102589.72;;;14.04;62.19
29417;BME280;28421;51.030;4.006;2023-04-08T11:03:02;102573.56;;;13.39;62.58
29417;BME280;28421;51.030;4.006;2023-04-08T11:05:28;102579.56;;;13.33;63.55
29417;BME280;28421;51.030;4.006;2023-04-08T11:07:54;102553.09;;;13.91;62.45
29417;BME280;28421;51.030;4.006;2023-04-08T11:10:20;102561.97;;;13.09;64.31
29417;BME280;28421;51.030;4.006;2023-04-08T11:12:46;102536.84;;;13.74;62.52
29417;BME280;28421;51.030;4.006;2023-04-08T11:15:12;102561.19;;;13.64;62.10
29417;BME280;28421;51.030;4.006;2023-04-08T11:17:48;102596.69;;;14.52;60.59
29417;BME280;28421;51.030;4.006;2023-04-08T11:20:14;102546.13;;;14.42;59.46
29417;BME280;28421;51.030;4.006;2023-04-08T11:22:40;102549.47;;;14.54;59.55
29417;BME280;28421;51.030;4.006;2023-04-08T11:25:06;102566.63;;;14.81;59.22
29417;BME280;28421;51.030;4.006;2023-04-08T11:27:34;102545.75;;;14.37;59.23
29417;BME280;28421;51.030;4.006;2023-04-08T11:30:01;102580.19;;;14.27;58.49
29417;BME280;28421;51.030;4.006;2023-04-08T11:32:27;102598.81;;;14.48;59.80
29417;BME280;28421;51.030;4.006;2023-04-08T11:34:53;102590.19;;;14.17;60.31
29417;BME280;28421;51.030;4.006;2023-04-08T11:37:19;102580.63;;;14.40;59.25
29417;BME280;28421;51.030;4.006;2023-04-08T11:39:45;102577.44;;;14.09;59.65
29417;BME280;28421;51.030;4.006;2023-04-08T11:42:31;102576.75;;;14.25;60.43
29417;BME280;28421;51.030;4.006;2023-04-08T11:44:57;102590.66;;;13.95;60.33
29417;BME280;28421;51.030;4.006;2023-04-08T11:47:32;102587.53;;;14.71;59.31
29417;BME280;28421;51.030;4.006;2023-04-08T11:49:58;102576.38;;;14.02;60.38
29417;BME280;28421;51.030;4.006;2023-04-08T11:52:46;102579.00;;;14.30;60.70
29417;BME280;28421;51.030;4.006;2023-04-08T11:55:28;102580.84;;;14.47;59.35
29417;BME280;28421;51.030;4.006;2023-04-08T11:57:56;102576.19;;;14.49;58.79
29417;BME280;28421;51.030;4.006;2023-04-08T12:00:22;102586.03;;;14.76;58.33
29417;BME280;28421;51.030;4.006;2023-04-08T12:02:48;102582.13;;;14.35;59.08
29417;BME280;28421;51.030;4.006;2023-04-08T12:05:16;102585.28;;;14.48;58.64
29417;BME280;28421;51.030;4.006;2023-04-08T12:07:42;102522.28;;;14.56;58.78
29417;BME280;28421;51.030;4.006;2023-04-08T12:13:17;102565.81;;;15.40;57.49
29417;BME280;28421;51.030;4.006;2023-04-08T12:15:43;102526.44;;;14.94;56.96
29417;BME280;28421;51.030;4.006;2023-04-08T12:18:08;102580.38;;;15.74;55.96
29417;BME280;28421;51.030;4.006;2023-04-08T12:20:34;102572.81;;;15.51;56.27
29417;BME280;28421;51.030;4.006;2023-04-08T12:22:59;102555.47;;;14.84;55.42
29417;BME280;28421;51.030;4.006;2023-04-08T12:25:25;102552.63;;;14.67;58.18
29417;BME280;28421;51.030;4.006;2023-04-08T12:27:51;102497.16;;;14.98;55.54
29417;BME280;28421;51.030;4.006;2023-04-08T12:30:17;102578.50;;;15.74;55.56
29417;BME280;28421;51.030;4.006;2023-04-08T12:32:43;102538.63;;;14.72;56.43
29417;BME280;28421;51.030;4.006;2023-04-08T12:35:10;102557.69;;;14.27;57.92
29417;BME280;28421;51.030;4.006;2023-04-08T12:37:35;102518.84;;;14.98;56.68
29417;BME280;28421;51.030;4.006;2023-04-08T12:40:01;102564.34;;;14.50;56.78
29417;BME280;28421;51.030;4.006;2023-04-08T12:42:27;102560.78;;;15.20;58.21
29417;BME280;28421;51.030;4.006;2023-04-08T12:44:52;102574.50;;;15.18;56.82
29417;BME280;28421;51.030;4.006;2023-04-08T12:47:18;102567.91;;;14.95;57.78
29417;BME280;28421;51.030;4.006;2023-04-08T12:49:43;102540.47;;;15.24;57.18
29417;BME280;28421;51.030;4.006;2023-04-08T12:52:09;102543.59;;;15.37;56.36
29417;BME280;28421;51.030;4.006;2023-04-08T12:54:34;102519.50;;;15.00;55.89
29417;BME280;28421;51.030;4.006;2023-04-08T12:57:00;102540.97;;;16.20;56.05
29417;BME280;28421;51.030;4.006;2023-04-08T12:59:25;102521.06;;;15.79;54.05
29417;BME280;28421;51.030;4.006;2023-04-08T13:01:51;102518.44;;;16.44;54.70
29417;BME280;28421;51.030;4.006;2023-04-08T13:04:16;102514.19;;;16.41;53.36
29417;BME280;28421;51.030;4.006;2023-04-08T13:06:44;102530.06;;;15.45;54.68
29417;BME280;28421;51.030;4.006;2023-04-08T13:09:10;102514.88;;;16.27;53.97
29417;BME280;28421;51.030;4.006;2023-04-08T13:11:35;102533.50;;;15.98;55.24
29417;BME280;28421;51.030;4.006;2023-04-08T13:14:01;102524.88;;;16.59;53.67
29417;BME280;28421;51.030;4.006;2023-04-08T13:16:26;102540.06;;;15.87;53.01
29417;BME280;28421;51.030;4.006;2023-04-08T13:18:52;102517.75;;;16.18;53.86
29417;BME280;28421;51.030;4.006;2023-04-08T13:21:17;102550.16;;;16.60;52.21
29417;BME280;28421;51.030;4.006;2023-04-08T13:23:43;102552.53;;;16.87;52.95
29417;BME280;28421;51.030;4.006;2023-04-08T13:26:08;102540.47;;;16.65;52.67
29417;BME280;28421;51.030;4.006;2023-04-08T13:28:34;102519.47;;;16.35;51.23
29417;BME280;28421;51.030;4.006;2023-04-08T13:30:59;102534.03;;;16.50;50.94
29417;BME280;28421;51.030;4.006;2023-04-08T13:33:28;102517.69;;;16.99;50.93
29417;BME280;28421;51.030;4.006;2023-04-08T13:35:53;102491.59;;;16.82;49.08
29417;BME280;28421;51.030;4.006;2023-04-08T13:38:26;102518.41;;;15.10;48.95
29417;BME280;28421;51.030;4.006;2023-04-08T13:40:52;102512.47;;;15.49;50.06
29417;BME280;28421;51.030;4.006;2023-04-08T13:43:18;102524.78;;;15.70;49.94
29417;BME280;28421;51.030;4.006;2023-04-08T13:45:43;102551.75;;;15.11;51.45
29417;BME280;28421;51.030;4.006;2023-04-08T13:48:09;102543.34;;;16.07;52.37
29417;BME280;28421;51.030;4.006;2023-04-08T13:50:34;102486.13;;;15.76;50.45
29417;BME280;28421;51.030;4.006;2023-04-08T13:53:00;102530.97;;;16.37;50.81
29417;BME280;28421;51.030;4.006;2023-04-08T13:55:26;102536.25;;;16.79;49.88
29417;BME280;28421;51.030;4.006;2023-04-08T13:57:52;102510.53;;;15.76;50.65
29417;BME280;28421;51.030;4.006;2023-04-08T14:00:17;102538.47;;;16.68;50.81
29417;BME280;28421;51.030;4.006;2023-04-08T14:02:43;102490.75;;;16.00;51.16
29417;BME280;28421;51.030;4.006;2023-04-08T14:05:09;102496.34;;;15.98;49.96
29417;BME280;28421;51.030;4.006;2023-04-08T14:07:37;102490.13;;;15.55;50.94
29417;BME280;28421;51.030;4.006;2023-04-08T14:10:03;102530.44;;;15.93;51.46
29417;BME280;28421;51.030;4.006;2023-04-08T14:12:29;102478.56;;;16.12;51.00
29417;BME280;28421;51.030;4.006;2023-04-08T14:14:54;102481.94;;;16.55;50.85
29417;BME280;28421;51.030;4.006;2023-04-08T14:17:22;102478.28;;;17.03;50.69
29417;BME280;28421;51.030;4.006;2023-04-08T14:19:47;102495.94;;;17.07;48.77
29417;BME280;28421;51.030;4.006;2023-04-08T14:22:15;102520.97;;;17.73;49.20
29417;BME280;28421;51.030;4.006;2023-04-08T14:24:43;102507.16;;;17.04;47.64
29417;BME280;28421;51.030;4.006;2023-04-08T14:27:09;102514.69;;;16.70;49.49
29417;BME280;28421;51.030;4.006;2023-04-08T14:29:34;102481.78;;;16.07;51.67
29417;BME280;28421;51.030;4.006;2023-04-08T14:32:00;102513.34;;;16.33;50.92
29417;BME280;28421;51.030;4.006;2023-04-08T14:34:25;102477.63;;;15.20;52.74
29417;BME280;28421;51.030;4.006;2023-04-08T14:36:51;102516.94;;;14.90;54.93
29417;BME280;28421;51.030;4.006;2023-04-08T14:39:17;102521.94;;;15.45;55.28
29417;BME280;28421;51.030;4.006;2023-04-08T14:41:42;102470.97;;;15.49;53.33
29417;BME280;28421;51.030;4.006;2023-04-08T14:44:07;102494.28;;;15.33;52.80
29417;BME280;28421;51.030;4.006;2023-04-08T14:46:33;102481.91;;;15.31;52.65
29417;BME280;28421;51.030;4.006;2023-04-08T14:48:58;102457.56;;;15.39;53.74
29417;BME280;28421;51.030;4.006;2023-04-08T14:51:25;102485.16;;;15.85;53.62
29417;BME280;28421;51.030;4.006;2023-04-08T14:53:50;102514.66;;;15.96;53.37
29417;BME280;28421;51.030;4.006;2023-04-08T14:56:16;102463.28;;;15.36;52.90
29417;BME280;28421;51.030;4.006;2023-04-08T14:58:41;102489.28;;;15.12;53.52
29417;BME280;28421;51.030;4.006;2023-04-08T15:01:07;102480.97;;;14.80;55.05
29417;BME280;28421;51.030;4.006;2023-04-08T15:03:32;102490.75;;;14.11;57.97
29417;BME280;28421;51.030;4.006;2023-04-08T15:05:58;102479.44;;;13.80;57.98
29417;BME280;28421;51.030;4.006;2023-04-08T15:08:24;102438.25;;;13.50;57.98
29417;BME280;28421;51.030;4.006;2023-04-08T15:10:49;102518.16;;;14.34;57.59
29417;BME280;28421;51.030;4.006;2023-04-08T15:13:15;102486.78;;;14.23;56.07
29417;BME280;28421;51.030;4.006;2023-04-08T15:15:40;102512.34;;;14.90;55.34
29417;BME280;28421;51.030;4.006;2023-04-08T15:18:06;102484.09;;;14.67;54.71
29417;BME280;28421;51.030;4.006;2023-04-08T15:20:39;102476.97;;;14.92;52.78
29417;BME280;28421;51.030;4.006;2023-04-08T15:23:15;102503.44;;;14.98;52.40
29417;BME280;28421;51.030;4.006;2023-04-08T15:25:43;102503.38;;;15.24;53.34
29417;BME280;28421;51.030;4.006;2023-04-08T15:31:25;102418.69;;;15.14;51.83
29417;BME280;28421;51.030;4.006;2023-04-08T15:41:26;102408.81;;;15.63;51.12
29417;BME280;28421;51.030;4.006;2023-04-08T15:43:57;102410.13;;;15.43;50.31
29417;BME280;28421;51.030;4.006;2023-04-08T15:46:28;102451.06;;;15.74;50.78
29417;BME280;28421;51.030;4.006;2023-04-08T15:48:54;102488.56;;;16.28;51.13
29417;BME280;28421;51.030;4.006;2023-04-08T15:51:20;102485.16;;;16.50;50.71
29417;BME280;28421;51.030;4.006;2023-04-08T15:53:45;102421.03;;;16.33;51.26
29417;BME280;28421;51.030;4.006;2023-04-08T15:56:12;102491.09;;;16.62;50.45
29417;BME280;28421;51.030;4.006;2023-04-08T15:58:38;102463.44;;;16.50;50.19
29417;BME280;28421;51.030;4.006;2023-04-08T16:01:04;102452.50;;;16.91;50.19
29417;BME280;28421;51.030;4.006;2023-04-08T16:03:29;102450.53;;;17.16;49.61
29417;BME280;28421;51.030;4.006;2023-04-08T16:05:55;102491.63;;;17.60;49.72
29417;BME280;28421;51.030;4.006;2023-04-08T16:08:21;102449.94;;;17.37;48.74
29417;BME280;28421;51.030;4.006;2023-04-08T16:10:48;102465.50;;;16.32;49.07
29417;BME280;28421;51.030;4.006;2023-04-08T16:13:13;102488.38;;;16.29;50.48
29417;BME280;28421;51.030;4.006;2023-04-08T16:15:39;102494.31;;;16.65;50.92
29417;BME280;28421;51.030;4.006;2023-04-08T16:18:04;102489.59;;;16.43;50.03
29417;BME280;28421;51.030;4.006;2023-04-08T16:20:32;102501.28;;;15.44;53.13
29417;BME280;28421;51.030;4.006;2023-04-08T16:22:57;102482.38;;;15.18;52.35
29417;BME280;28421;51.030;4.006;2023-04-08T16:25:23;102506.00;;;15.08;52.39
29417;BME280;28421;51.030;4.006;2023-04-08T16:27:48;102495.00;;;15.01;53.66
29417;BME280;28421;51.030;4.006;2023-04-08T16:30:14;102472.63;;;14.99;52.67
29417;BME280;28421;51.030;4.006;2023-04-08T16:32:39;102483.31;;;15.09;52.72
29417;BME280;28421;51.030;4.006;2023-04-08T16:35:06;102503.06;;;15.27;52.88
29417;BME280;28421;51.030;4.006;2023-04-08T16:37:32;102452.31;;;15.03;52.70